createdAt,value
2018-11-26T00:00:59.402Z,4.30
2018-11-26T00:03:31.814Z,4.30
2018-11-26T00:06:04.440Z,4.40
2018-11-26T00:08:36.987Z,4.40
2018-11-26T00:11:42.278Z,4.20
2018-11-26T00:14:14.756Z,4.20
2018-11-26T00:16:47.191Z,4.10
2018-11-26T00:19:19.651Z,4.10
2018-11-26T00:21:52.105Z,4.20
2018-11-26T00:24:24.571Z,4.00
2018-11-26T00:26:56.945Z,4.00
2018-11-26T00:29:29.410Z,4.10
2018-11-26T00:32:01.843Z,4.10
2018-11-26T00:34:34.331Z,4.10
2018-11-26T00:37:06.782Z,4.00
2018-11-26T00:39:39.285Z,4.00
2018-11-26T00:42:11.723Z,3.80
2018-11-26T00:44:44.166Z,3.90
2018-11-26T00:47:16.538Z,3.90
2018-11-26T00:49:49.009Z,3.80
2018-11-26T00:52:21.485Z,3.70
2018-11-26T00:54:53.899Z,3.60
2018-11-26T00:57:26.283Z,3.60
2018-11-26T00:59:58.799Z,3.70
2018-11-26T01:02:31.253Z,3.80
2018-11-26T01:05:03.994Z,3.70
2018-11-26T01:07:36.450Z,3.50
2018-11-26T01:10:09.027Z,3.50
2018-11-26T01:12:41.456Z,3.50
2018-11-26T01:15:13.902Z,3.60
2018-11-26T01:17:46.352Z,3.50
2018-11-26T01:20:18.761Z,3.50
2018-11-26T01:22:51.174Z,3.50
2018-11-26T01:25:23.569Z,3.50
2018-11-26T01:27:56.056Z,3.60
2018-11-26T01:30:28.647Z,3.50
2018-11-26T01:33:01.174Z,3.50
2018-11-26T01:35:33.603Z,3.40
2018-11-26T01:38:06.158Z,3.30
2018-11-26T01:40:44.335Z,3.40
2018-11-26T01:43:16.886Z,3.30
2018-11-26T01:45:49.335Z,3.40
2018-11-26T01:48:21.874Z,3.50
2018-11-26T01:50:54.360Z,3.50
2018-11-26T01:53:26.821Z,3.50
2018-11-26T01:55:59.237Z,3.40
2018-11-26T01:58:31.612Z,3.40
2018-11-26T02:01:04.090Z,3.50
2018-11-26T02:03:36.484Z,3.60
2018-11-26T02:06:08.968Z,3.60
2018-11-26T02:08:41.415Z,3.50
2018-11-26T02:11:13.865Z,3.40
2018-11-26T02:13:46.291Z,3.40
2018-11-26T02:16:18.729Z,3.40
2018-11-26T02:18:51.130Z,3.30
2018-11-26T02:21:23.671Z,3.30
2018-11-26T02:23:56.079Z,3.30
2018-11-26T02:26:28.578Z,3.40
2018-11-26T02:29:01.053Z,3.20
2018-11-26T02:31:34.674Z,3.30
2018-11-26T02:34:07.100Z,3.30
2018-11-26T02:36:39.697Z,3.30
2018-11-26T02:39:12.089Z,3.40
2018-11-26T02:41:44.528Z,3.40
2018-11-26T02:44:16.883Z,3.30
2018-11-26T02:46:49.377Z,3.40
2018-11-26T02:49:21.766Z,3.40
2018-11-26T02:51:54.249Z,3.40
2018-11-26T02:54:26.646Z,3.40
2018-11-26T02:56:59.103Z,3.40
2018-11-26T02:59:31.504Z,3.50
2018-11-26T03:02:03.978Z,3.60
2018-11-26T03:04:36.430Z,3.70
2018-11-26T03:07:08.858Z,3.60
2018-11-26T03:09:41.265Z,3.70
2018-11-26T03:12:13.771Z,3.50
2018-11-26T03:14:46.150Z,3.50
2018-11-26T03:17:18.599Z,3.60
2018-11-26T03:19:51.016Z,3.60
2018-11-26T03:22:23.529Z,3.40
2018-11-26T03:24:55.912Z,3.40
2018-11-26T03:27:28.329Z,3.40
2018-11-26T03:30:00.789Z,3.40
2018-11-26T03:32:33.392Z,3.30
2018-11-26T03:35:06.885Z,3.40
2018-11-26T03:37:39.317Z,3.40
2018-11-26T03:40:12.497Z,3.30
2018-11-26T03:42:44.958Z,3.40
2018-11-26T03:45:17.958Z,3.40
2018-11-26T03:47:50.413Z,3.40
2018-11-26T03:50:22.835Z,3.30
2018-11-26T03:52:55.378Z,3.40
2018-11-26T03:55:27.747Z,3.30
2018-11-26T03:58:00.255Z,3.50
2018-11-26T04:00:32.680Z,3.60
2018-11-26T04:03:05.101Z,3.50
2018-11-26T04:05:37.466Z,3.40
2018-11-26T04:08:09.878Z,3.40
2018-11-26T04:10:42.281Z,3.30
2018-11-26T04:13:14.747Z,3.40
2018-11-26T04:15:47.172Z,3.40
2018-11-26T04:18:19.631Z,3.30
2018-11-26T04:20:52.114Z,3.30
2018-11-26T04:23:24.757Z,3.40
2018-11-26T04:25:57.202Z,3.50
2018-11-26T04:28:29.600Z,3.50
2018-11-26T04:31:02.044Z,3.40
2018-11-26T04:33:34.490Z,3.40
2018-11-26T04:36:07.089Z,3.40
2018-11-26T04:38:39.465Z,3.30
2018-11-26T04:41:11.962Z,3.40
2018-11-26T04:43:44.401Z,3.40
2018-11-26T04:46:16.926Z,3.40
2018-11-26T04:48:49.451Z,3.40
2018-11-26T04:51:21.879Z,3.30
2018-11-26T04:53:54.515Z,3.20
2018-11-26T04:56:26.980Z,3.20
2018-11-26T04:58:59.406Z,3.20
2018-11-26T05:01:32.157Z,3.10
2018-11-26T05:04:05.167Z,3.10
2018-11-26T05:06:37.777Z,3.20
2018-11-26T05:09:10.240Z,3.10
2018-11-26T05:11:42.749Z,3.20
2018-11-26T05:14:15.193Z,3.20
2018-11-26T05:16:47.616Z,3.30
2018-11-26T05:19:20.282Z,3.20
2018-11-26T05:21:52.733Z,3.20
2018-11-26T05:24:25.244Z,3.20
2018-11-26T05:26:57.663Z,3.20
2018-11-26T05:29:30.278Z,3.40
2018-11-26T05:32:02.719Z,3.30
2018-11-26T05:34:37.233Z,3.20
2018-11-26T05:37:09.643Z,3.50
2018-11-26T05:39:42.216Z,3.40
2018-11-26T05:42:14.653Z,3.40
2018-11-26T05:44:47.061Z,3.40
2018-11-26T05:47:19.506Z,3.40
2018-11-26T05:49:51.917Z,3.40
2018-11-26T05:52:24.327Z,3.50
2018-11-26T05:54:56.947Z,3.70
2018-11-26T05:57:29.375Z,3.70
2018-11-26T06:00:01.824Z,3.70
2018-11-26T06:02:34.278Z,3.70
2018-11-26T06:05:06.819Z,3.60
2018-11-26T06:07:39.398Z,3.60
2018-11-26T06:10:11.898Z,3.60
2018-11-26T06:12:44.351Z,3.50
2018-11-26T06:15:16.861Z,3.60
2018-11-26T06:17:49.275Z,3.50
2018-11-26T06:20:21.854Z,3.60
2018-11-26T06:22:54.327Z,3.60
2018-11-26T06:25:26.846Z,3.50
2018-11-26T06:27:59.326Z,3.50
2018-11-26T06:30:31.868Z,3.70
2018-11-26T06:33:04.655Z,3.60
2018-11-26T06:35:37.361Z,3.80
2018-11-26T06:38:09.913Z,3.80
2018-11-26T06:40:42.379Z,3.80
2018-11-26T06:43:14.983Z,3.80
2018-11-26T06:45:47.417Z,3.70
2018-11-26T06:48:19.882Z,3.70
2018-11-26T06:50:52.310Z,3.80
2018-11-26T06:53:24.774Z,3.90
2018-11-26T06:55:57.252Z,3.80
2018-11-26T06:58:30.004Z,3.80
2018-11-26T07:01:02.469Z,3.90
2018-11-26T07:03:35.007Z,3.90
2018-11-26T07:06:07.498Z,3.80
2018-11-26T07:08:39.900Z,3.90
2018-11-26T07:11:12.400Z,3.80
2018-11-26T07:13:44.835Z,4.00
2018-11-26T07:16:18.326Z,4.00
2018-11-26T07:18:50.753Z,4.00
2018-11-26T07:21:23.271Z,3.90
2018-11-26T07:23:55.740Z,3.80
2018-11-26T07:26:28.243Z,3.90
2018-11-26T07:29:00.624Z,4.10
2018-11-26T07:31:33.195Z,4.00
2018-11-26T07:34:05.609Z,4.00
2018-11-26T07:36:38.155Z,4.10
2018-11-26T07:39:10.544Z,4.20
2018-11-26T07:41:43.021Z,4.10
2018-11-26T07:44:15.426Z,4.00
2018-11-26T07:46:47.864Z,4.10
2018-11-26T07:49:20.269Z,4.40
2018-11-26T07:51:52.665Z,4.50
2018-11-26T07:54:25.026Z,4.60
2018-11-26T07:56:57.539Z,4.70
2018-11-26T07:59:30.162Z,4.50
2018-11-26T08:02:02.639Z,4.70
2018-11-26T08:04:35.137Z,4.70
2018-11-26T08:07:07.581Z,4.70
2018-11-26T08:09:40.141Z,4.40
2018-11-26T08:12:12.675Z,4.30
2018-11-26T08:14:45.152Z,4.30
2018-11-26T08:17:17.893Z,4.40
2018-11-26T08:19:50.333Z,4.20
2018-11-26T08:22:22.809Z,4.10
2018-11-26T08:24:55.263Z,4.20
2018-11-26T08:27:27.732Z,4.30
2018-11-26T08:30:00.161Z,4.30
2018-11-26T08:33:03.505Z,4.30
2018-11-26T08:35:36.002Z,4.40
2018-11-26T08:38:13.154Z,4.30
2018-11-26T08:40:49.054Z,4.40
2018-11-26T08:43:27.204Z,4.40
2018-11-26T08:46:04.210Z,4.40
2018-11-26T08:48:43.143Z,4.40
2018-11-26T08:51:15.551Z,4.40
2018-11-26T08:53:48.039Z,4.50
2018-11-26T08:56:20.443Z,4.50
2018-11-26T08:58:52.904Z,4.50
2018-11-26T09:01:31.103Z,4.50
2018-11-26T09:04:03.987Z,4.70
2018-11-26T09:06:37.089Z,4.50
2018-11-26T09:09:10.458Z,4.40
2018-11-26T09:11:43.112Z,4.40
2018-11-26T09:14:15.608Z,4.50
2018-11-26T09:16:48.232Z,4.60
2018-11-26T09:19:20.946Z,4.60
2018-11-26T09:21:53.596Z,4.60
2018-11-26T09:24:26.134Z,4.50
2018-11-26T09:26:58.663Z,4.50
2018-11-26T09:29:31.191Z,4.50
2018-11-26T09:32:03.897Z,4.50
2018-11-26T09:34:36.377Z,4.70
2018-11-26T09:37:08.920Z,4.60
2018-11-26T09:39:41.548Z,4.60
2018-11-26T09:42:14.670Z,4.50
2018-11-26T09:44:47.172Z,4.40
2018-11-26T09:47:19.694Z,4.50
2018-11-26T09:49:52.501Z,4.50
2018-11-26T09:52:24.923Z,4.50
2018-11-26T09:54:57.563Z,4.70
2018-11-26T09:57:30.052Z,4.60
2018-11-26T10:00:08.134Z,4.50
2018-11-26T10:02:41.446Z,4.70
2018-11-26T10:05:17.097Z,4.70
2018-11-26T10:07:49.954Z,4.70
2018-11-26T10:10:22.605Z,4.80
2018-11-26T10:12:55.171Z,4.80
2018-11-26T10:15:27.861Z,4.90
2018-11-26T10:18:15.287Z,4.80
2018-11-26T10:20:48.409Z,4.80
2018-11-26T10:23:21.047Z,4.80
2018-11-26T10:25:53.862Z,4.80
2018-11-26T10:28:26.386Z,4.80
2018-11-26T10:30:58.791Z,4.80
2018-11-26T10:33:31.251Z,4.90
2018-11-26T10:36:03.768Z,4.90
2018-11-26T10:38:36.431Z,4.80
2018-11-26T10:41:09.364Z,4.80
2018-11-26T10:43:41.865Z,4.80
2018-11-26T10:46:14.495Z,4.90
2018-11-26T10:48:47.020Z,5.00
2018-11-26T10:51:19.476Z,5.00
2018-11-26T10:53:52.074Z,5.10
2018-11-26T10:56:24.549Z,5.10
2018-11-26T10:58:57.002Z,5.10
2018-11-26T11:01:35.276Z,5.20
2018-11-26T11:04:07.862Z,5.20
2018-11-26T11:06:40.365Z,5.20
2018-11-26T11:09:14.228Z,5.30
2018-11-26T11:11:46.738Z,5.40
2018-11-26T11:14:19.250Z,5.40
2018-11-26T11:16:51.768Z,5.30
2018-11-26T11:19:24.267Z,5.20
2018-11-26T11:21:56.736Z,5.10
2018-11-26T11:24:29.265Z,5.20
2018-11-26T11:27:01.710Z,5.20
2018-11-26T11:29:34.168Z,5.30
2018-11-26T11:32:06.637Z,5.30
2018-11-26T11:34:39.327Z,5.40
2018-11-26T11:37:11.939Z,5.40
2018-11-26T11:39:44.394Z,5.30
2018-11-26T11:42:17.733Z,5.30
2018-11-26T11:44:50.418Z,5.50
2018-11-26T11:47:23.008Z,5.40
2018-11-26T11:49:55.611Z,5.50
2018-11-26T11:52:28.128Z,5.30
2018-11-26T11:55:01.062Z,5.30
2018-11-26T11:57:33.725Z,5.30
2018-11-26T12:00:10.403Z,5.40
2018-11-26T12:02:43.159Z,5.40
2018-11-26T12:05:15.686Z,5.30
2018-11-26T12:07:48.323Z,5.40
2018-11-26T12:10:20.986Z,5.70
2018-11-26T12:12:53.525Z,5.60
2018-11-26T12:15:26.099Z,5.50
2018-11-26T12:17:58.630Z,5.50
2018-11-26T12:20:31.188Z,5.50
2018-11-26T12:23:03.948Z,5.40
2018-11-26T12:25:36.569Z,5.50
2018-11-26T12:28:09.108Z,5.60
2018-11-26T12:30:44.458Z,5.50
2018-11-26T12:33:17.041Z,5.60
2018-11-26T12:35:49.727Z,5.60
2018-11-26T12:38:22.254Z,5.50
2018-11-26T12:40:54.820Z,5.50
2018-11-26T12:43:27.351Z,5.50
2018-11-26T12:45:59.857Z,5.40
2018-11-26T12:48:32.662Z,5.40
2018-11-26T12:51:05.246Z,5.50
2018-11-26T12:53:37.842Z,5.40
2018-11-26T12:56:10.316Z,5.50
2018-11-26T12:58:42.871Z,5.50
2018-11-26T13:01:15.495Z,5.40
2018-11-26T13:03:48.011Z,5.40
2018-11-26T13:06:20.476Z,5.50
2018-11-26T13:08:52.993Z,5.40
2018-11-26T13:11:25.437Z,5.50
2018-11-26T13:13:57.901Z,5.70
2018-11-26T13:16:30.334Z,5.70
2018-11-26T13:19:02.908Z,5.90
2018-11-26T13:21:35.418Z,5.80
2018-11-26T13:24:08.136Z,5.70
2018-11-26T13:26:40.686Z,5.60
2018-11-26T13:29:13.300Z,5.40
2018-11-26T13:31:45.746Z,5.30
2018-11-26T13:34:18.285Z,5.40
2018-11-26T13:36:50.717Z,5.50
2018-11-26T13:39:23.755Z,5.50
2018-11-26T13:41:56.337Z,5.40
2018-11-26T13:44:28.980Z,5.30
2018-11-26T13:47:01.512Z,5.40
2018-11-26T13:49:34.057Z,5.40
2018-11-26T13:52:06.515Z,5.50
2018-11-26T13:54:38.960Z,5.30
2018-11-26T13:57:11.442Z,5.40
2018-11-26T13:59:43.890Z,5.50
2018-11-26T14:02:19.601Z,5.30
2018-11-26T14:04:51.991Z,5.40
2018-11-26T14:07:24.419Z,5.30
2018-11-26T14:09:56.979Z,5.20
2018-11-26T14:12:29.437Z,5.20
2018-11-26T14:15:02.011Z,5.30
2018-11-26T14:17:34.485Z,5.40
2018-11-26T14:20:10.558Z,5.40
2018-11-26T14:22:43.112Z,5.60
2018-11-26T14:25:17.774Z,5.50
2018-11-26T14:27:50.290Z,5.50
2018-11-26T14:30:24.536Z,5.60
2018-11-26T14:32:57.103Z,5.60
2018-11-26T14:35:29.705Z,5.60
2018-11-26T14:38:03.980Z,5.60
2018-11-26T14:40:41.490Z,5.50
2018-11-26T14:43:14.042Z,5.40
2018-11-26T14:45:46.724Z,5.40
2018-11-26T14:48:19.191Z,5.60
2018-11-26T14:50:51.980Z,5.70
2018-11-26T14:53:24.510Z,5.60
2018-11-26T14:55:57.088Z,5.70
2018-11-26T14:58:29.635Z,5.60
2018-11-26T15:01:02.185Z,5.30
2018-11-26T15:03:34.826Z,5.30
2018-11-26T15:06:07.537Z,5.30
2018-11-26T15:08:39.989Z,5.40
2018-11-26T15:11:12.445Z,5.40
2018-11-26T15:13:44.891Z,5.40
2018-11-26T15:16:17.485Z,5.40
2018-11-26T15:18:49.958Z,5.30
2018-11-26T15:21:22.442Z,5.10
2018-11-26T15:23:54.909Z,5.20
2018-11-26T15:26:27.731Z,5.30
2018-11-26T15:28:59.983Z,5.30
2018-11-26T15:31:32.534Z,5.20
2018-11-26T15:34:05.218Z,5.40
2018-11-26T15:36:37.794Z,5.40
2018-11-26T15:39:10.235Z,5.50
2018-11-26T15:41:42.693Z,5.50
2018-11-26T15:44:15.149Z,5.40
2018-11-26T15:46:47.666Z,5.40
2018-11-26T15:49:20.208Z,5.30
2018-11-26T15:51:52.613Z,5.40
2018-11-26T15:54:25.217Z,5.40
2018-11-26T15:56:57.692Z,5.50
2018-11-26T15:59:30.263Z,5.30
2018-11-26T16:02:03.363Z,5.10
2018-11-26T16:04:35.834Z,5.00
2018-11-26T16:07:09.841Z,5.10
2018-11-26T16:09:42.256Z,5.10
2018-11-26T16:12:14.754Z,5.30
2018-11-26T16:14:47.258Z,5.40
2018-11-26T16:17:19.689Z,5.30
2018-11-26T16:19:52.183Z,5.20
2018-11-26T16:22:25.912Z,5.10
2018-11-26T16:24:58.391Z,5.00
2018-11-26T16:27:32.260Z,4.90
2018-11-26T16:30:06.613Z,5.00
2018-11-26T16:32:39.318Z,5.20
2018-11-26T16:35:16.021Z,5.00
2018-11-26T16:37:48.547Z,5.00
2018-11-26T16:40:21.093Z,4.90
2018-11-26T16:42:53.539Z,4.90
2018-11-26T16:45:27.058Z,4.90
2018-11-26T16:48:00.405Z,4.90
2018-11-26T16:50:34.217Z,4.80
2018-11-26T16:53:07.099Z,4.80
2018-11-26T16:55:39.802Z,4.80
2018-11-26T16:58:12.301Z,4.80
2018-11-26T17:00:44.793Z,4.60
2018-11-26T17:03:17.278Z,4.70
2018-11-26T17:05:49.740Z,4.60
2018-11-26T17:08:23.652Z,4.70
2018-11-26T17:10:56.336Z,4.80
2018-11-26T17:13:28.988Z,4.80
2018-11-26T17:16:01.455Z,4.80
2018-11-26T17:18:33.994Z,4.90
2018-11-26T17:21:06.512Z,4.80
2018-11-26T17:23:38.985Z,4.90
2018-11-26T17:26:11.410Z,4.90
2018-11-26T17:28:44.031Z,5.00
2018-11-26T17:31:16.589Z,4.90
2018-11-26T17:33:49.155Z,4.80
2018-11-26T17:36:21.659Z,4.60
2018-11-26T17:38:54.159Z,4.60
2018-11-26T17:41:26.642Z,4.60
2018-11-26T17:43:59.036Z,4.80
2018-11-26T17:46:31.564Z,4.70
2018-11-26T17:49:04.851Z,4.80
2018-11-26T17:51:37.312Z,5.00
2018-11-26T17:54:09.853Z,4.80
2018-11-26T17:56:42.350Z,4.70
2018-11-26T17:59:14.879Z,4.80
2018-11-26T18:01:47.482Z,4.90
2018-11-26T18:04:19.897Z,4.90
2018-11-26T18:06:52.382Z,5.00
2018-11-26T18:09:24.942Z,5.00
2018-11-26T18:11:57.433Z,5.00
2018-11-26T18:14:29.822Z,5.10
2018-11-26T18:17:02.652Z,5.00
2018-11-26T18:19:35.176Z,5.10
2018-11-26T18:22:07.690Z,5.00
2018-11-26T18:24:40.149Z,4.90
2018-11-26T18:27:12.608Z,4.80
2018-11-26T18:29:45.255Z,4.80
2018-11-26T18:32:17.688Z,4.90
2018-11-26T18:34:50.162Z,5.00
2018-11-26T18:37:23.017Z,5.10
2018-11-26T18:39:55.461Z,5.10
2018-11-26T18:42:28.043Z,5.00
2018-11-26T18:45:00.485Z,4.90
2018-11-26T18:47:33.242Z,5.00
2018-11-26T18:50:10.237Z,5.10
2018-11-26T18:52:43.277Z,5.00
2018-11-26T18:55:15.764Z,4.90
2018-11-26T18:57:48.275Z,5.00
2018-11-26T19:00:26.059Z,5.10
2018-11-26T19:02:58.717Z,5.10
2018-11-26T19:05:31.121Z,5.10
2018-11-26T19:08:03.618Z,5.10
2018-11-26T19:10:36.869Z,5.20
2018-11-26T19:13:14.506Z,5.30
2018-11-26T19:15:48.273Z,5.40
2018-11-26T19:18:23.946Z,5.20
2018-11-26T19:20:56.428Z,5.20
2018-11-26T19:23:28.896Z,5.20
2018-11-26T19:26:01.290Z,5.20
2018-11-26T19:28:33.749Z,5.10
2018-11-26T19:31:06.941Z,5.00
2018-11-26T19:33:39.440Z,5.00
2018-11-26T19:36:11.880Z,4.80
2018-11-26T19:38:44.329Z,4.90
2018-11-26T19:41:16.763Z,4.80
2018-11-26T19:43:49.200Z,4.90
2018-11-26T19:46:21.682Z,4.90
2018-11-26T19:48:54.304Z,5.00
2018-11-26T19:51:26.729Z,4.80
2018-11-26T19:53:59.173Z,4.80
2018-11-26T19:56:31.622Z,4.50
2018-11-26T19:59:04.053Z,4.50
2018-11-26T20:01:36.501Z,4.60
2018-11-26T20:06:24.473Z,4.60
2018-11-26T20:08:58.776Z,4.60
2018-11-26T20:11:33.363Z,4.70
2018-11-26T20:14:04.478Z,4.80
2018-11-26T20:16:39.538Z,4.70
2018-11-26T20:19:12.011Z,4.70
2018-11-26T20:21:44.491Z,4.60
2018-11-26T20:24:17.077Z,4.40
2018-11-26T20:26:49.549Z,4.40
2018-11-26T20:29:21.961Z,4.40
2018-11-26T20:31:54.536Z,4.10
2018-11-26T20:34:27.011Z,4.20
2018-11-26T20:36:59.406Z,4.30
2018-11-26T20:39:31.908Z,4.20
2018-11-26T20:42:04.628Z,4.20
2018-11-26T20:44:37.039Z,4.20
2018-11-26T20:47:09.472Z,4.10
2018-11-26T20:49:42.094Z,4.10
2018-11-26T20:52:14.576Z,4.10
2018-11-26T20:54:47.166Z,4.10
2018-11-26T20:57:19.582Z,4.20
2018-11-26T20:59:52.199Z,3.90
2018-11-26T21:02:24.588Z,3.90
2018-11-26T21:04:57.265Z,4.00
2018-11-26T21:07:29.636Z,4.00
2018-11-26T21:10:02.261Z,4.00
2018-11-26T21:12:34.792Z,3.90
2018-11-26T21:15:10.206Z,3.80
2018-11-26T21:17:50.597Z,3.70
2018-11-26T21:20:39.547Z,3.70
2018-11-26T21:23:14.768Z,3.70
2018-11-26T21:25:47.364Z,3.70
2018-11-26T21:28:19.749Z,3.60
2018-11-26T21:30:52.522Z,3.40
2018-11-26T21:35:57.570Z,3.20
2018-11-26T21:38:30.693Z,3.20
2018-11-26T21:41:03.498Z,3.20
2018-11-26T21:43:35.936Z,3.30
2018-11-26T21:46:08.493Z,3.20
2018-11-26T21:48:40.977Z,3.10
2018-11-26T21:51:13.542Z,3.20
2018-11-26T21:53:46.061Z,3.00
2018-11-26T21:56:18.748Z,3.10
2018-11-26T21:58:51.173Z,3.00
2018-11-26T22:01:24.014Z,2.90
2018-11-26T22:03:56.425Z,2.80
2018-11-26T22:06:28.999Z,3.00
2018-11-26T22:09:01.413Z,2.80
2018-11-26T22:11:34.004Z,2.80
2018-11-26T22:14:06.463Z,2.90
2018-11-26T22:16:38.920Z,2.90
2018-11-26T22:19:11.368Z,2.80
2018-11-26T22:21:44.080Z,2.70
2018-11-26T22:24:16.452Z,2.80
2018-11-26T22:26:49.057Z,2.70
2018-11-26T22:29:21.450Z,2.80
2018-11-26T22:31:53.976Z,2.70
2018-11-26T22:34:26.489Z,2.70
2018-11-26T22:36:58.952Z,2.70
2018-11-26T22:39:31.385Z,2.80
2018-11-26T22:42:03.876Z,2.80
2018-11-26T22:44:36.312Z,2.90
2018-11-26T22:47:08.757Z,2.90
2018-11-26T22:49:41.158Z,2.70
2018-11-26T22:52:13.612Z,2.70
2018-11-26T22:54:46.008Z,2.50
2018-11-26T22:57:18.734Z,2.50
2018-11-26T22:59:51.138Z,2.30
2018-11-26T23:02:23.607Z,2.30
2018-11-26T23:04:55.999Z,2.20
2018-11-26T23:07:28.418Z,2.20
2018-11-26T23:10:00.866Z,2.30
2018-11-26T23:12:33.320Z,2.30
2018-11-26T23:15:09.807Z,2.10
2018-11-26T23:17:42.702Z,2.10
2018-11-26T23:20:16.088Z,1.70
2018-11-26T23:22:48.644Z,1.80
2018-11-26T23:25:21.084Z,1.80
2018-11-26T23:27:53.749Z,1.80
2018-11-26T23:33:00.432Z,1.70
2018-11-26T23:35:33.841Z,1.90
2018-11-26T23:38:06.288Z,1.90
2018-11-26T23:40:38.703Z,2.10
2018-11-26T23:43:11.138Z,1.90
2018-11-26T23:45:43.528Z,1.90
2018-11-26T23:48:16.202Z,1.90
2018-11-26T23:50:48.871Z,1.70
2018-11-26T23:53:21.248Z,1.50
2018-11-26T23:55:53.843Z,1.60
2018-11-26T23:58:26.255Z,1.60
